createdAt,value
2022-08-22T00:04:08.216Z,3.30
2022-08-22T00:09:23.273Z,3.40
2022-08-22T00:14:31.987Z,3.13
2022-08-22T00:19:44.196Z,3.20
2022-08-22T00:24:53.553Z,3.17
2022-08-22T00:30:00.603Z,3.37
2022-08-22T00:35:05.904Z,2.80
2022-08-22T00:40:19.090Z,3.20
2022-08-22T00:45:37.333Z,3.10
2022-08-22T00:50:46.786Z,3.13
2022-08-22T00:56:04.087Z,3.37
2022-08-22T01:01:08.730Z,3.67
2022-08-22T01:06:22.161Z,3.67
2022-08-22T01:11:35.408Z,3.80
2022-08-22T01:16:54.808Z,3.43
2022-08-22T01:22:15.858Z,3.53
2022-08-22T01:27:36.881Z,3.60
2022-08-22T01:32:58.114Z,3.37
2022-08-22T01:38:15.327Z,3.27
2022-08-22T01:44:00.166Z,3.10
2022-08-22T01:48:51.114Z,3.40
2022-08-22T01:53:59.486Z,3.53
2022-08-22T01:59:05.584Z,3.10
2022-08-22T02:04:17.613Z,3.60
2022-08-22T02:09:31.212Z,4.10
2022-08-22T02:14:39.895Z,3.60
2022-08-22T02:19:48.002Z,3.73
2022-08-22T02:25:00.083Z,3.57
2022-08-22T02:30:06.951Z,3.53
2022-08-22T02:35:18.722Z,3.87
2022-08-22T02:40:29.082Z,4.03
2022-08-22T02:45:38.633Z,3.63
2022-08-22T02:50:44.021Z,3.73
2022-08-22T02:55:53.479Z,3.87
2022-08-22T03:01:11.106Z,4.10
2022-08-22T03:06:29.334Z,4.40
2022-08-22T03:11:38.909Z,3.80
2022-08-22T03:16:50.768Z,4.60
2022-08-22T03:21:57.873Z,4.20
2022-08-22T03:27:05.064Z,4.47
2022-08-22T03:32:11.627Z,4.40
2022-08-22T03:37:18.731Z,4.03
2022-08-22T03:42:32.029Z,4.70
2022-08-22T03:47:43.962Z,5.33
2022-08-22T03:53:13.798Z,4.53
2022-08-22T03:58:38.008Z,3.97
2022-08-22T04:03:56.208Z,4.33
2022-08-22T04:09:24.200Z,4.73
2022-08-22T04:14:45.518Z,4.60
2022-08-22T04:19:56.135Z,3.90
2022-08-22T04:25:04.695Z,4.53
2022-08-22T04:30:14.997Z,4.07
2022-08-22T04:35:27.802Z,3.83
2022-08-22T04:40:34.507Z,4.53
2022-08-22T04:45:40.147Z,4.90
2022-08-22T04:50:46.887Z,4.93
2022-08-22T04:55:55.825Z,5.57
2022-08-22T05:01:00.949Z,5.63
2022-08-22T05:06:06.358Z,6.13
2022-08-22T05:11:11.707Z,5.47
2022-08-22T05:16:19.022Z,5.93
2022-08-22T05:21:27.107Z,5.97
2022-08-22T05:26:31.462Z,5.97
2022-08-22T05:31:36.967Z,6.33
2022-08-22T05:36:42.757Z,6.23
2022-08-22T05:41:46.530Z,6.63
2022-08-22T05:46:51.689Z,6.13
2022-08-22T05:52:06.340Z,6.17
2022-08-22T05:57:12.787Z,5.50
2022-08-22T06:02:20.756Z,6.00
2022-08-22T06:07:27.773Z,5.00
2022-08-22T06:12:34.401Z,5.63
2022-08-22T06:17:40.835Z,5.27
2022-08-22T06:22:51.679Z,5.43
2022-08-22T06:27:56.133Z,4.70
2022-08-22T06:33:02.643Z,4.83
2022-08-22T06:38:07.738Z,5.30
2022-08-22T06:43:12.126Z,5.00
2022-08-22T06:48:18.028Z,5.87
2022-08-22T06:53:26.008Z,5.33
2022-08-22T06:58:34.212Z,4.60
2022-08-22T07:03:39.220Z,4.53
2022-08-22T07:08:44.695Z,4.20
2022-08-22T07:13:52.759Z,3.90
2022-08-22T07:18:56.207Z,4.10
2022-08-22T07:24:02.163Z,3.93
2022-08-22T07:29:11.233Z,4.17
2022-08-22T07:34:27.657Z,4.83
2022-08-22T07:39:34.752Z,4.60
2022-08-22T07:44:43.769Z,3.90
2022-08-22T07:49:51.385Z,3.97
2022-08-22T07:54:58.299Z,3.00
2022-08-22T08:00:03.894Z,2.65
2022-08-22T08:05:15.844Z,3.15
2022-08-22T08:10:34.529Z,2.30
2022-08-22T08:15:39.360Z,2.13
2022-08-22T08:20:43.224Z,2.25
2022-08-22T08:25:53.941Z,2.28
2022-08-22T08:30:59.269Z,2.42
2022-08-22T08:36:06.200Z,2.85
2022-08-22T08:41:33.548Z,2.22
2022-08-22T08:46:50.226Z,2.50
2022-08-22T08:52:10.813Z,2.35
2022-08-22T08:57:21.055Z,2.50
2022-08-22T09:02:44.352Z,2.22
2022-08-22T09:07:57.148Z,2.90
2022-08-22T09:13:19.844Z,2.80
2022-08-22T09:18:34.948Z,2.28
2022-08-22T09:23:56.954Z,2.20
2022-08-22T09:29:07.293Z,2.15
2022-08-22T09:34:13.424Z,2.50
2022-08-22T09:39:55.533Z,2.03
2022-08-22T09:45:34.461Z,2.35
2022-08-22T09:50:46.598Z,2.55
2022-08-22T09:56:15.780Z,3.00
2022-08-22T10:01:42.577Z,2.58
2022-08-22T10:07:11.958Z,3.10
2022-08-22T10:12:20.597Z,2.47
2022-08-22T10:17:31.471Z,2.70
2022-08-22T10:22:41.405Z,2.05
2022-08-22T10:28:05.912Z,2.40
2022-08-22T10:33:17.189Z,2.72
2022-08-22T10:38:25.035Z,2.80
2022-08-22T10:43:34.383Z,2.60
2022-08-22T10:48:45.934Z,2.60
2022-08-22T10:53:58.590Z,2.67
2022-08-22T10:59:07.650Z,2.80
2022-08-22T11:04:19.862Z,2.35
2022-08-22T11:09:37.280Z,2.80
2022-08-22T11:15:03.574Z,2.50
2022-08-22T11:20:20.198Z,2.40
2022-08-22T11:25:41.409Z,2.17
2022-08-22T11:30:48.402Z,3.10
2022-08-22T11:36:00.302Z,2.60
2022-08-22T11:41:11.510Z,2.50
2022-08-22T11:46:22.979Z,2.83
2022-08-22T11:51:35.427Z,2.20
2022-08-22T11:56:45.102Z,2.42
2022-08-22T12:01:52.653Z,2.70
2022-08-22T12:07:01.040Z,2.25
2022-08-22T12:12:13.904Z,2.55
2022-08-22T12:17:55.043Z,2.10
2022-08-22T12:22:56.481Z,2.15
2022-08-22T12:28:08.250Z,2.20
2022-08-22T12:33:26.791Z,2.20
2022-08-22T12:38:40.443Z,2.22
2022-08-22T12:43:50.974Z,2.22
2022-08-22T12:49:01.613Z,2.35
2022-08-22T12:54:31.016Z,2.05
2022-08-22T12:59:37.430Z,2.28
2022-08-22T13:04:45.654Z,2.65
2022-08-22T13:09:52.255Z,1.50
2022-08-22T13:14:57.417Z,2.35
2022-08-22T13:20:03.169Z,2.10
2022-08-22T13:25:09.429Z,2.38
2022-08-22T13:30:21.826Z,2.08
2022-08-22T13:35:26.879Z,1.90
2022-08-22T13:40:32.931Z,1.90
2022-08-22T13:45:37.376Z,1.90
2022-08-22T13:50:59.699Z,1.83
2022-08-22T13:56:07.575Z,1.85
2022-08-22T14:01:31.161Z,1.75
2022-08-22T14:06:38.305Z,2.22
2022-08-22T14:11:48.394Z,2.25
2022-08-22T14:16:53.563Z,1.88
2022-08-22T14:21:59.174Z,1.90
2022-08-22T14:27:06.631Z,1.88
2022-08-22T14:32:14.399Z,1.98
2022-08-22T14:37:23.495Z,1.95
2022-08-22T14:42:30.290Z,1.80
2022-08-22T14:48:09.929Z,1.92
2022-08-22T14:53:06.626Z,1.90
2022-08-22T14:58:18.803Z,1.92
2022-08-22T15:03:33.087Z,1.80
2022-08-22T15:08:37.479Z,2.10
2022-08-22T15:13:52.658Z,1.95
2022-08-22T15:18:56.051Z,1.73
2022-08-22T15:24:01.065Z,2.10
2022-08-22T15:29:08.471Z,2.42
2022-08-22T15:34:13.970Z,1.80
2022-08-22T15:39:28.820Z,1.95
2022-08-22T15:44:35.656Z,1.80
2022-08-22T15:49:48.707Z,2.20
2022-08-22T15:55:14.770Z,1.95
2022-08-22T16:00:29.289Z,2.03
2022-08-22T16:05:42.851Z,1.65
2022-08-22T16:10:48.694Z,2.00
2022-08-22T16:15:58.327Z,1.80
2022-08-22T16:21:02.525Z,1.88
2022-08-22T16:26:16.675Z,1.90
2022-08-22T16:31:24.561Z,2.15
2022-08-22T16:36:39.015Z,2.03
2022-08-22T16:41:43.396Z,2.20
2022-08-22T16:46:49.896Z,2.40
2022-08-22T16:52:11.699Z,2.33
2022-08-22T16:57:21.139Z,1.70
2022-08-22T17:02:48.278Z,2.00
2022-08-22T17:07:59.539Z,2.03
2022-08-22T17:13:12.880Z,1.92
2022-08-22T17:18:24.245Z,2.00
2022-08-22T17:23:33.492Z,1.90
2022-08-22T17:28:40.769Z,2.03
2022-08-22T17:33:59.783Z,2.65
2022-08-22T17:39:11.413Z,3.08
2022-08-22T17:44:20.169Z,2.35
2022-08-22T17:49:26.973Z,1.73
2022-08-22T17:54:34.723Z,2.70
2022-08-22T17:59:41.155Z,7.22
2022-08-22T18:04:47.747Z,2.70
2022-08-22T18:09:54.852Z,1.80
2022-08-22T18:15:00.606Z,2.43
2022-08-22T18:20:07.520Z,1.93
2022-08-22T18:25:28.531Z,1.90
2022-08-22T18:30:34.505Z,2.23
2022-08-22T18:35:42.625Z,2.00
2022-08-22T18:40:50.427Z,2.00
2022-08-22T18:46:03.336Z,1.87
2022-08-22T18:51:25.029Z,1.80
2022-08-22T18:56:49.476Z,1.87
2022-08-22T19:01:59.152Z,2.10
2022-08-22T19:07:14.026Z,2.07
2022-08-22T19:12:31.356Z,2.00
2022-08-22T19:17:43.555Z,1.80
2022-08-22T19:22:51.059Z,2.17
2022-08-22T19:28:09.814Z,1.97
2022-08-22T19:33:19.391Z,2.30
2022-08-22T19:38:47.537Z,2.00
2022-08-22T19:43:50.975Z,2.10
2022-08-22T19:48:55.700Z,2.10
2022-08-22T19:54:06.950Z,2.37
2022-08-22T19:59:15.481Z,1.87
2022-08-22T20:04:33.602Z,1.70
2022-08-22T20:09:43.716Z,2.10
2022-08-22T20:14:47.948Z,2.10
2022-08-22T20:25:42.500Z,1.83
2022-08-22T20:30:44.076Z,2.17
2022-08-22T20:35:52.653Z,2.03
2022-08-22T20:41:00.760Z,1.90
2022-08-22T20:46:13.718Z,2.00
2022-08-22T20:51:22.390Z,1.83
2022-08-22T20:56:36.423Z,2.00
2022-08-22T21:01:40.282Z,2.00
2022-08-22T21:06:47.721Z,2.17
2022-08-22T21:11:51.757Z,1.90
2022-08-22T21:16:55.446Z,1.90
2022-08-22T21:22:12.810Z,1.80
2022-08-22T21:27:24.355Z,1.67
2022-08-22T21:32:30.375Z,2.07
2022-08-22T21:37:38.349Z,1.77
2022-08-22T21:42:43.205Z,1.80
2022-08-22T21:47:46.717Z,1.90
2022-08-22T21:53:02.976Z,2.13
2022-08-22T21:58:12.102Z,2.37
2022-08-22T22:03:16.866Z,2.03
2022-08-22T22:08:21.879Z,1.77
2022-08-22T22:13:28.345Z,2.43
2022-08-22T22:18:33.089Z,1.90
2022-08-22T22:23:37.791Z,1.83
2022-08-22T22:28:43.041Z,1.93
2022-08-22T22:33:46.670Z,2.07
2022-08-22T22:38:52.060Z,2.50
2022-08-22T22:43:56.176Z,2.03
2022-08-22T22:48:59.611Z,1.67
2022-08-22T22:54:04.531Z,1.77
2022-08-22T22:59:14.635Z,2.00
2022-08-22T23:04:18.154Z,2.00
2022-08-22T23:09:28.250Z,1.63
2022-08-22T23:14:44.444Z,1.83
2022-08-22T23:19:47.829Z,1.73
2022-08-22T23:24:52.599Z,1.80
2022-08-22T23:29:56.125Z,1.70
2022-08-22T23:34:59.554Z,1.60
2022-08-22T23:40:07.433Z,2.27
2022-08-22T23:45:11.016Z,1.77
2022-08-22T23:50:14.414Z,1.70
2022-08-22T23:55:19.419Z,1.80
